Terminal Aerodrome Forecast
Issued by NWS

Home | Current Version | Previous Version | Text Only | Print | Product List | Glossary On
Versions: 1 2 3 4 5 6 7 8 9 10 11 12 13 14 15 16 17 18 19
000
FTUS43 KAPX 271407 AAB
TAFMBL
TAF AMD
KMBL 271407Z 2714/2812 10004KT P6SM OVC035
     FM271600 25009KT P6SM OVC035
      TEMPO 2716/2720 4SM -SHSN OVC030
     FM280000 24006KT P6SM OVC035
      AMD LTD TO CLD VIS AND WIND=

USA.gov is the U.S. government's official web portal to all federal, state and local government web resources and services.